Grand Coulee, WA

4:55 AM PDT on July 23, 2014 (GMT -0700)
3 miles ESE of Grand Coulee Dam, in Lincoln County, WA (KWAGRAND5) Elev 1575 ft | 47.92 °N, 118.94 °W | Change Station

Current weather conditions updated 10 minutes ago

Overcast
Overcast
64.8 °F
Feels Like 64.8 °F
N
0.0
Wind Variable Wind from West
Gusts 0.0 mph

Today is forecast to be Warmer than yesterday.

Today
High -- | Low -- °F
--% Chance of Precip.
Yesterday
High -- | Low -- °F
Precip. -- in
5:21 AM 8:42 PM
Waning Crescent, 11% visible
Pressure 30.02 in
Visibility 10.0 miles
Clouds Mostly Cloudy 9000 ft
Dew Point 54 °F
Humidity 69%
Rainfall 0.00 in
Snow Depth Not available.
UV 0 out of 12
Pollen 5.40 out of 12
Air Quality Not available.
Flu Activity Not available.
METAR KOMK 231053Z AUTO 32004KT 10SM BKN090 17/11 A3003 RMK AO2 SLP165 T01670111 $

More Conditions Fewer Conditions

Pressure 30.02 in
Visibility 10.0 miles
Clouds Mostly Cloudy 9000 ft
Dew Point 54 °F
Humidity 69%
Rainfall 0.00 in
Snow Depth Not available.
UV 0 out of 12
Pollen 5.40 out of 12
Air Quality Not available.
Flu Activity Not available.
METAR KOMK 231053Z AUTO 32004KT 10SM BKN090 17/11 A3003 RMK AO2 SLP165 T01670111 $

More Conditions Fewer Conditions

10-Day Weather Forecast

Almanac

Astronomy

Jul. 23, 2014 Rise Set
Actual Time 5:21 AM PDT 8:42 PM PDT
Civil Twilight 4:43 AM PDT 9:20 PM PDT
Nautical Twilight 3:53 AM PDT 10:10 PM PDT
Astronomical Twilight 2:48 AM PDT 11:14 PM PDT
Moon 2:46 AM PDT 6:13 PM PDT
Length of Visible Light 16h 37m
Length of Day
15h 21m
Tomorrow will be 2m 20s shorter.
Waning Crescent, 11% of the Moon is Illuminated
Today
Waning Crescent
Jul 26
New
Aug 3
First Quarter
Aug 10
Full
Aug 17
Last Quarter

Today's Extremes

State Highs State Lows

Community

WunderPhotos

Upload Photos

1,736,561 photos uploaded!

Nearby

Snow Depth

Station Depth Elevation
Moses Mountain 1 in 5300 ft
Sentinel Butte 0 in 4920 ft
Upper Wheeler 0 in 4400 ft
Trough 0 in 5300 ft
Grouse Camp 0 in 5380 ft

Earthquake Activity

City Distance Mag. Time & Date
No recent earthquake activity has been reported nearby.
Minimum magnitude displayed is 2.5.

Coastal Water Temperatures

Place Temperature
No Stations Reporting

Nearby Weather Stations

Station Location Temp. Dew Point Humidity Wind Precip. Elev Updated Type
3 miles ESE of Grand Coulee Dam, in Linc, Grand Coulee, WA 64.8 °F 54 °F 69% West  at  0.0 mph 0.00 in / hr 1575 ft 4:44 AM PDT Normal
RAWS SPRING CANYON WA, Coulee Dam, WA 67 °F 58 °F 72% South  at  3 mph 0.00 in / hr 1339 ft 3:37 AM PDT MADIS
MesoWest Coulee Dam West , Electric City, WA 61 °F 56 °F 84% ESE  at  1 mph 0.00 in / hr 2562 ft 3:15 AM PDT MADIS
RAWS NESPELEM WA, Elmer City, WA 62 °F 56 °F 82% South  at  1 mph 0.00 in / hr 1899 ft 3:57 AM PDT MADIS
MesoWest Mansfield , Mansfield, WA 59 °F 55 °F 87% NE  at  5 mph 0.00 in / hr 2159 ft 3:10 AM PDT MADIS

Show More Stations Show Fewer Stations